Skip Navigation LinksHome page > Weather > Current weather Skip Navigation Links

Current Weather

San Francisco International, San Francisco

For information only: do not use for flight planning or navigation.
Latest weather
Observation time Sunday, September 20, 2020 6:56 AM PDT
Local time Sunday, September 20, 2020 7:31 AM PDT
Flight conditions Visual Meteorological Conditions
Winds
Wind direction West-Northwest (290°)
Wind speed 5 mph
Visibility 10 mi.
Sky condition
Ceiling unlimited
Cloud layer few clouds 1,100 ft.
Cloud layer scattered clouds 20,000 ft.
Temperature 59°F
Dewpoint 53°F
Altimeter 29.89 in.Hg
Derived measurements
Relative humidity 81%
Density altitude 242 ft.
Sea-level pressure 29.89 in.Hg
Remarks
Automated weather observing station with precipitation discriminator.
METAR KSFO 201356Z 29004KT 10SM FEW011 SCT200 15/12 A2989 RMK AO2 SLP121 T01500117

Settings

Location code

InnerDrive.Weather 4.0.6770.0 Release CLR 4.0.30319.42000
Copyright ©2018 Inner Drive Technology. All rights reserved. Portions Copyright ©1986-2018 David Braverman.

Find weather

Site navigation


Skip Navigation Links

Place info

Page info

PayPal - The safer, easier way to pay online!

Return home.

Copyright ©2020 Inner Drive Technology. Purveyors of fine, hand-crafted computer software. Page printed 2020-09-20T14:31:57 UTC.